createdAt,value
2022-11-20T00:01:34.696Z,2.80
2022-11-20T00:04:02.907Z,2.90
2022-11-20T00:06:32.236Z,2.70
2022-11-20T00:09:02.372Z,2.40
2022-11-20T00:11:31.715Z,2.50
2022-11-20T00:14:02.252Z,2.50
2022-11-20T00:16:33.531Z,2.70
2022-11-20T00:19:01.549Z,2.80
2022-11-20T00:21:31.825Z,2.60
2022-11-20T00:24:01.427Z,2.70
2022-11-20T00:26:30.483Z,2.80
2022-11-20T00:29:00.147Z,2.70
2022-11-20T00:31:31.752Z,2.70
2022-11-20T00:34:01.450Z,2.70
2022-11-20T00:36:31.181Z,2.60
2022-11-20T00:39:01.225Z,2.60
2022-11-20T00:41:30.822Z,2.40
2022-11-20T00:44:02.284Z,2.40
2022-11-20T00:46:30.726Z,2.60
2022-11-20T00:48:58.900Z,2.80
2022-11-20T00:51:28.421Z,2.70
2022-11-20T00:53:57.795Z,2.50
2022-11-20T00:56:27.634Z,2.60
2022-11-20T00:58:55.661Z,2.60
2022-11-20T01:01:26.119Z,2.30
2022-11-20T01:03:56.116Z,2.40
2022-11-20T01:06:25.937Z,2.30
2022-11-20T01:08:56.844Z,2.30
2022-11-20T01:11:30.795Z,2.50
2022-11-20T01:14:00.326Z,2.50
2022-11-20T01:16:33.426Z,2.40
2022-11-20T01:19:03.567Z,2.40
2022-11-20T01:21:33.366Z,2.50
2022-11-20T01:24:07.997Z,2.60
2022-11-20T01:26:48.072Z,2.50
2022-11-20T01:29:19.247Z,2.20
2022-11-20T01:31:47.628Z,2.50
2022-11-20T01:34:17.984Z,2.40
2022-11-20T01:36:46.969Z,2.20
2022-11-20T01:39:17.203Z,2.30
2022-11-20T01:42:09.708Z,2.40
2022-11-20T01:44:54.745Z,2.40
2022-11-20T01:47:31.574Z,2.40
2022-11-20T01:50:03.527Z,2.50
2022-11-20T01:52:35.671Z,2.40
2022-11-20T01:55:08.893Z,2.40
2022-11-20T01:57:43.068Z,2.40
2022-11-20T02:00:14.766Z,2.40
2022-11-20T02:02:45.526Z,2.00
2022-11-20T02:05:20.519Z,2.20
2022-11-20T02:07:49.531Z,2.10
2022-11-20T02:10:17.717Z,1.90
2022-11-20T02:13:04.521Z,1.80
2022-11-20T02:15:34.226Z,2.10
2022-11-20T02:18:02.389Z,2.00
2022-11-20T02:20:30.515Z,2.00
2022-11-20T02:23:01.963Z,2.30
2022-11-20T02:25:34.245Z,2.30
2022-11-20T02:28:02.185Z,2.30
2022-11-20T02:30:30.200Z,2.20
2022-11-20T02:32:59.411Z,2.00
2022-11-20T02:35:45.746Z,1.90
2022-11-20T02:38:16.201Z,1.90
2022-11-20T02:40:45.570Z,1.90
2022-11-20T02:43:13.570Z,2.10
2022-11-20T02:45:41.563Z,2.20
2022-11-20T02:48:09.786Z,2.30
2022-11-20T02:50:40.125Z,2.30
2022-11-20T02:53:08.577Z,2.20
2022-11-20T02:55:37.245Z,2.30
2022-11-20T02:58:06.500Z,2.10
2022-11-20T03:00:34.645Z,2.20
2022-11-20T03:03:03.712Z,2.30
2022-11-20T03:05:31.690Z,2.10
2022-11-20T03:08:00.163Z,2.30
2022-11-20T03:10:32.648Z,2.30
2022-11-20T03:13:00.709Z,2.30
2022-11-20T03:15:33.241Z,2.30
2022-11-20T03:18:01.166Z,2.40
2022-11-20T03:20:29.086Z,2.50
2022-11-20T03:22:57.050Z,2.50
2022-11-20T03:25:25.085Z,2.50
2022-11-20T03:27:53.236Z,2.30
2022-11-20T03:30:21.302Z,2.50
2022-11-20T03:32:50.965Z,2.70
2022-11-20T03:35:18.930Z,2.60
2022-11-20T03:37:47.068Z,2.60
2022-11-20T03:40:15.224Z,2.80
2022-11-20T03:42:49.265Z,2.90
2022-11-20T03:45:19.369Z,2.40
2022-11-20T03:47:52.568Z,2.10
2022-11-20T03:50:22.373Z,2.30
2022-11-20T03:52:50.323Z,2.40
2022-11-20T03:55:18.311Z,2.60
2022-11-20T03:57:46.247Z,2.60
2022-11-20T04:00:15.914Z,2.60
2022-11-20T04:02:43.795Z,2.60
2022-11-20T04:05:13.139Z,2.60
2022-11-20T04:07:41.256Z,2.70
2022-11-20T04:10:09.952Z,2.60
2022-11-20T04:12:38.073Z,2.60
2022-11-20T04:15:06.560Z,2.50
2022-11-20T04:17:36.334Z,2.80
2022-11-20T04:20:05.540Z,2.90
2022-11-20T04:22:34.733Z,2.80
2022-11-20T04:25:02.667Z,2.60
2022-11-20T04:27:32.596Z,2.60
2022-11-20T04:30:00.581Z,2.70
2022-11-20T04:32:28.507Z,2.60
2022-11-20T04:34:56.422Z,2.80
2022-11-20T04:37:24.333Z,2.90
2022-11-20T04:39:53.622Z,3.00
2022-11-20T04:42:30.431Z,3.00
2022-11-20T04:44:58.679Z,2.80
2022-11-20T04:47:26.735Z,2.70
2022-11-20T04:49:54.749Z,2.60
2022-11-20T04:52:22.723Z,2.80
2022-11-20T04:54:54.392Z,2.80
2022-11-20T04:57:23.812Z,2.80
2022-11-20T04:59:52.015Z,2.70
2022-11-20T05:02:20.197Z,2.70
2022-11-20T05:04:48.182Z,2.80
2022-11-20T05:07:16.246Z,2.60
2022-11-20T05:09:44.260Z,2.40
2022-11-20T05:12:12.462Z,2.50
2022-11-20T05:14:41.716Z,2.50
2022-11-20T05:17:12.513Z,2.70
2022-11-20T05:19:42.150Z,2.70
2022-11-20T05:22:14.808Z,2.50
2022-11-20T05:24:42.792Z,2.80
2022-11-20T05:27:13.515Z,2.60
2022-11-20T05:29:42.789Z,2.60
2022-11-20T05:32:10.709Z,2.60
2022-11-20T05:34:38.698Z,2.50
2022-11-20T05:37:06.689Z,2.70
2022-11-20T05:39:34.628Z,2.80
2022-11-20T05:42:20.292Z,2.90
2022-11-20T05:44:49.562Z,2.80
2022-11-20T05:47:17.546Z,2.70
2022-11-20T05:49:45.445Z,2.70
2022-11-20T05:52:13.508Z,2.70
2022-11-20T05:54:43.911Z,2.70
2022-11-20T05:57:14.700Z,2.60
2022-11-20T05:59:42.773Z,2.50
2022-11-20T06:02:19.171Z,2.50
2022-11-20T06:04:47.096Z,2.50
2022-11-20T06:07:14.995Z,2.60
2022-11-20T06:09:42.989Z,2.70
2022-11-20T06:12:11.174Z,2.80
2022-11-20T06:14:39.133Z,2.80
2022-11-20T06:17:09.483Z,2.80
2022-11-20T06:19:41.789Z,2.50
2022-11-20T06:22:09.716Z,2.40
2022-11-20T06:24:44.221Z,2.60
2022-11-20T06:27:12.373Z,2.50
2022-11-20T06:29:40.247Z,2.60
2022-11-20T06:32:11.264Z,2.50
2022-11-20T06:34:41.059Z,2.50
2022-11-20T06:37:09.063Z,2.50
2022-11-20T06:39:36.972Z,2.50
2022-11-20T06:42:07.331Z,2.50
2022-11-20T06:44:38.420Z,2.60
2022-11-20T06:47:06.495Z,2.60
2022-11-20T06:49:35.321Z,2.90
2022-11-20T06:52:07.431Z,2.80
2022-11-20T06:54:36.176Z,2.80
2022-11-20T06:57:04.148Z,2.80
2022-11-20T06:59:32.076Z,2.70
2022-11-20T07:02:02.378Z,2.70
2022-11-20T07:04:30.414Z,2.50
2022-11-20T07:06:58.335Z,2.60
2022-11-20T07:09:27.767Z,2.60
2022-11-20T07:11:55.837Z,2.60
2022-11-20T07:14:23.749Z,2.70
2022-11-20T07:16:51.626Z,2.70
2022-11-20T07:19:19.715Z,2.60
2022-11-20T07:21:47.926Z,2.50
2022-11-20T07:24:15.848Z,2.60
2022-11-20T07:26:48.391Z,2.70
2022-11-20T07:29:18.535Z,2.80
2022-11-20T07:31:46.643Z,2.90
2022-11-20T07:34:14.572Z,2.90
2022-11-20T07:36:42.471Z,2.80
2022-11-20T07:39:10.548Z,2.90
2022-11-20T07:41:38.607Z,3.00
2022-11-20T07:44:07.953Z,3.00
2022-11-20T07:46:35.815Z,3.10
2022-11-20T07:49:03.710Z,3.10
2022-11-20T07:51:31.725Z,3.10
2022-11-20T07:53:59.890Z,3.20
2022-11-20T07:56:32.280Z,3.40
2022-11-20T07:59:01.591Z,3.40
2022-11-20T08:01:31.164Z,3.40
2022-11-20T08:03:59.245Z,3.30
2022-11-20T08:06:27.227Z,3.40
2022-11-20T08:08:55.148Z,3.40
2022-11-20T08:11:40.689Z,3.30
2022-11-20T08:14:14.783Z,3.40
2022-11-20T08:16:45.737Z,3.50
2022-11-20T08:19:15.289Z,3.40
2022-11-20T08:21:43.316Z,3.20
2022-11-20T08:24:11.938Z,3.40
2022-11-20T08:26:41.441Z,3.40
2022-11-20T08:29:09.624Z,3.20
2022-11-20T08:31:37.744Z,3.50
2022-11-20T08:34:09.395Z,3.60
2022-11-20T08:36:38.433Z,3.80
2022-11-20T08:39:06.384Z,3.80
2022-11-20T08:41:34.390Z,3.60
2022-11-20T08:44:08.660Z,3.60
2022-11-20T08:46:38.767Z,3.40
2022-11-20T08:49:09.473Z,3.50
2022-11-20T08:51:37.855Z,3.70
2022-11-20T08:54:09.578Z,3.90
2022-11-20T08:56:37.954Z,3.90
2022-11-20T08:59:23.359Z,3.40
2022-11-20T09:01:55.935Z,3.20
2022-11-20T09:04:25.178Z,3.20
2022-11-20T09:06:55.747Z,3.30
2022-11-20T09:09:23.925Z,3.40
2022-11-20T09:11:52.005Z,3.40
2022-11-20T09:14:19.932Z,3.70
2022-11-20T09:16:48.246Z,3.70
2022-11-20T09:22:05.641Z,3.90
2022-11-20T09:24:35.921Z,4.00
2022-11-20T09:27:05.912Z,4.10
2022-11-20T09:29:34.109Z,4.20
2022-11-20T09:32:02.137Z,4.10
2022-11-20T09:34:30.288Z,3.70
2022-11-20T09:37:01.551Z,3.60
2022-11-20T09:39:33.894Z,3.60
2022-11-20T09:42:28.514Z,3.80
2022-11-20T09:45:17.892Z,3.90
2022-11-20T09:48:00.732Z,3.80
2022-11-20T09:50:35.223Z,3.50
2022-11-20T09:53:24.674Z,3.80
2022-11-20T09:56:05.011Z,3.90
2022-11-20T09:58:37.328Z,3.80
2022-11-20T10:01:12.750Z,3.80
2022-11-20T10:03:48.315Z,3.90
2022-11-20T10:06:20.295Z,4.00
2022-11-20T10:08:53.773Z,4.10
2022-11-20T10:11:33.879Z,4.10
2022-11-20T10:14:17.061Z,4.20
2022-11-20T10:16:55.082Z,4.30
2022-11-20T10:19:43.905Z,4.30
2022-11-20T10:22:20.585Z,4.00
2022-11-20T10:24:58.320Z,4.10
2022-11-20T10:27:56.477Z,4.10
2022-11-20T10:30:26.318Z,4.10
2022-11-20T10:33:00.904Z,4.20
2022-11-20T10:35:37.185Z,4.20
2022-11-20T10:38:11.358Z,4.20
2022-11-20T10:40:43.248Z,4.30
2022-11-20T10:43:15.600Z,4.30
2022-11-20T10:45:52.344Z,4.30
2022-11-20T10:48:26.330Z,4.20
2022-11-20T10:51:17.573Z,4.40
2022-11-20T10:53:56.559Z,4.30
2022-11-20T10:56:29.959Z,4.30
2022-11-20T10:59:20.647Z,4.40
2022-11-20T11:01:54.719Z,4.40
2022-11-20T11:04:40.284Z,4.50
2022-11-20T11:07:14.419Z,4.40
2022-11-20T11:09:46.507Z,4.50
2022-11-20T11:12:15.306Z,4.40
2022-11-20T11:14:50.349Z,4.60
2022-11-20T11:17:29.082Z,4.80
2022-11-20T11:20:08.438Z,4.80
2022-11-20T11:22:46.104Z,4.90
2022-11-20T11:25:25.715Z,4.90
2022-11-20T11:27:56.126Z,4.80
2022-11-20T11:30:26.956Z,5.10
2022-11-20T11:33:07.353Z,5.30
2022-11-20T11:35:49.913Z,5.40
2022-11-20T11:38:24.038Z,5.50
2022-11-20T11:40:57.263Z,5.40
2022-11-20T11:43:46.078Z,5.20
2022-11-20T11:46:32.118Z,5.30
2022-11-20T11:49:03.841Z,5.20
2022-11-20T11:51:38.428Z,5.40
2022-11-20T11:54:16.299Z,5.70
2022-11-20T11:56:44.894Z,5.80
2022-11-20T11:59:29.065Z,5.70
2022-11-20T12:02:04.040Z,5.70
2022-11-20T12:04:45.775Z,6.10
2022-11-20T12:07:45.553Z,6.20
2022-11-20T12:10:18.821Z,6.00
2022-11-20T12:12:52.048Z,5.90
2022-11-20T12:15:28.406Z,5.90
2022-11-20T12:17:57.810Z,5.70
2022-11-20T12:20:30.906Z,5.80
2022-11-20T12:23:05.677Z,5.60
2022-11-20T12:25:36.618Z,5.50
2022-11-20T12:28:30.136Z,5.40
2022-11-20T12:31:22.046Z,5.10
2022-11-20T12:34:05.905Z,5.20
2022-11-20T12:36:42.975Z,5.30
2022-11-20T12:39:28.396Z,5.30
2022-11-20T12:42:41.935Z,5.50
2022-11-20T12:45:28.951Z,5.30
2022-11-20T12:48:21.236Z,5.30
2022-11-20T12:51:17.699Z,5.30
2022-11-20T12:53:54.773Z,5.20
2022-11-20T12:56:32.483Z,5.00
2022-11-20T12:59:20.314Z,5.10
2022-11-20T13:01:52.948Z,5.00
2022-11-20T13:04:51.726Z,5.20
2022-11-20T13:07:23.753Z,5.30
2022-11-20T13:09:53.101Z,5.30
2022-11-20T13:12:27.558Z,5.40
2022-11-20T13:15:04.455Z,5.50
2022-11-20T13:17:39.055Z,5.60
2022-11-20T13:20:14.220Z,5.50
2022-11-20T13:22:48.765Z,5.50
2022-11-20T13:25:26.991Z,5.60
2022-11-20T13:27:55.473Z,5.60
2022-11-20T13:30:25.383Z,5.40
2022-11-20T13:32:56.094Z,5.30
2022-11-20T13:35:33.249Z,5.20
2022-11-20T13:38:10.890Z,5.30
2022-11-20T13:40:41.025Z,5.30
2022-11-20T13:43:24.242Z,5.30
2022-11-20T13:46:01.238Z,5.40
2022-11-20T13:48:33.080Z,5.30
2022-11-20T13:51:17.432Z,5.30
2022-11-20T13:54:07.179Z,5.30
2022-11-20T13:56:49.724Z,5.20
2022-11-20T13:59:31.243Z,5.10
2022-11-20T14:01:59.275Z,5.10
2022-11-20T14:04:31.142Z,5.10
2022-11-20T14:07:00.143Z,5.10
2022-11-20T14:09:32.067Z,5.10
2022-11-20T14:12:00.172Z,5.20
2022-11-20T14:14:29.488Z,5.20
2022-11-20T14:17:08.172Z,5.20
2022-11-20T14:19:38.166Z,5.00
2022-11-20T14:22:19.575Z,5.00
2022-11-20T14:24:49.362Z,5.00
2022-11-20T14:27:19.855Z,5.00
2022-11-20T14:29:49.951Z,5.00
2022-11-20T14:32:19.859Z,5.00
2022-11-20T14:34:51.631Z,5.00
2022-11-20T14:37:23.707Z,5.00
2022-11-20T14:39:59.883Z,5.00
2022-11-20T14:42:29.719Z,5.00
2022-11-20T14:44:59.804Z,5.00
2022-11-20T14:47:29.660Z,5.00
2022-11-20T14:49:59.519Z,5.00
2022-11-20T14:52:29.450Z,5.00
2022-11-20T14:55:00.554Z,4.90
2022-11-20T14:57:29.986Z,4.90
2022-11-20T15:00:21.894Z,4.90
2022-11-20T15:02:51.606Z,4.90
2022-11-20T15:05:21.706Z,5.00
2022-11-20T15:07:52.824Z,4.90
2022-11-20T15:10:27.834Z,5.00
2022-11-20T15:13:01.288Z,5.00
2022-11-20T15:15:34.783Z,4.90
2022-11-20T15:18:04.032Z,5.00
2022-11-20T15:20:35.136Z,4.90
2022-11-20T15:23:03.093Z,4.80
2022-11-20T15:25:32.569Z,4.90
2022-11-20T15:28:00.516Z,4.90
2022-11-20T15:30:28.719Z,4.90
2022-11-20T15:32:56.732Z,4.90
2022-11-20T15:35:24.977Z,4.90
2022-11-20T15:37:53.135Z,4.90
2022-11-20T15:40:20.988Z,4.80
2022-11-20T15:43:12.584Z,4.80
2022-11-20T15:45:43.488Z,4.80
2022-11-20T15:48:14.389Z,4.80
2022-11-20T15:50:51.680Z,4.70
2022-11-20T15:53:19.740Z,4.80
2022-11-20T15:55:47.812Z,4.90
2022-11-20T15:58:18.010Z,4.90
2022-11-20T16:00:46.498Z,4.80
2022-11-20T16:03:15.245Z,4.70
2022-11-20T16:05:43.238Z,4.70
2022-11-20T16:08:12.090Z,4.80
2022-11-20T16:10:40.300Z,4.80
2022-11-20T16:13:32.388Z,4.80
2022-11-20T16:16:06.569Z,4.80
2022-11-20T16:18:34.708Z,4.80
2022-11-20T16:21:02.995Z,4.80
2022-11-20T16:23:31.088Z,4.80
2022-11-20T16:25:58.988Z,4.70
2022-11-20T16:28:30.595Z,4.80
2022-11-20T16:30:58.641Z,4.70
2022-11-20T16:33:27.966Z,4.70
2022-11-20T16:35:55.900Z,4.70
2022-11-20T16:38:23.828Z,4.70
2022-11-20T16:40:51.685Z,4.70
2022-11-20T16:43:19.669Z,4.80
2022-11-20T16:45:47.752Z,4.80
2022-11-20T16:48:17.433Z,4.80
2022-11-20T16:50:51.529Z,4.70
2022-11-20T16:53:19.806Z,4.80
2022-11-20T16:55:48.193Z,4.80
2022-11-20T16:58:16.557Z,4.80
2022-11-20T17:00:50.028Z,4.90
2022-11-20T17:03:20.936Z,4.80
2022-11-20T17:05:50.396Z,4.80
2022-11-20T17:08:18.289Z,4.80
2022-11-20T17:10:46.217Z,4.70
2022-11-20T17:13:20.099Z,4.70
2022-11-20T17:15:48.070Z,4.80
2022-11-20T17:18:15.966Z,4.80
2022-11-20T17:20:43.973Z,4.90
2022-11-20T17:23:14.546Z,4.90
2022-11-20T17:25:45.773Z,4.90
2022-11-20T17:28:17.515Z,4.70
2022-11-20T17:30:50.635Z,4.70
2022-11-20T17:33:18.686Z,4.70
2022-11-20T17:35:46.617Z,4.90
2022-11-20T17:38:17.156Z,4.90
2022-11-20T17:40:46.188Z,4.80
2022-11-20T17:43:14.154Z,4.80
2022-11-20T17:45:42.044Z,4.90
2022-11-20T17:48:10.357Z,4.90
2022-11-20T17:50:38.400Z,4.80
2022-11-20T17:53:07.519Z,4.80
2022-11-20T17:55:55.820Z,4.90
2022-11-20T17:58:24.094Z,4.90
2022-11-20T18:00:52.005Z,4.80
2022-11-20T18:03:19.909Z,4.90
2022-11-20T18:05:47.817Z,4.90
2022-11-20T18:08:15.695Z,4.90
2022-11-20T18:10:45.132Z,4.90
2022-11-20T18:13:15.406Z,4.80
2022-11-20T18:15:43.310Z,4.80
2022-11-20T18:18:11.323Z,4.90
2022-11-20T18:20:41.326Z,4.90
2022-11-20T18:23:10.469Z,4.90
2022-11-20T18:25:38.873Z,5.00
2022-11-20T18:28:08.199Z,4.90
2022-11-20T18:30:49.684Z,4.90
2022-11-20T18:33:18.646Z,4.90
2022-11-20T18:35:56.171Z,5.00
2022-11-20T18:38:26.194Z,5.10
2022-11-20T18:41:03.788Z,5.20
2022-11-20T18:44:00.606Z,5.40
2022-11-20T18:46:29.117Z,5.50
2022-11-20T18:48:57.048Z,5.50
2022-11-20T18:51:24.979Z,5.60
2022-11-20T18:54:12.315Z,5.60
2022-11-20T18:56:43.887Z,5.60
2022-11-20T18:59:15.269Z,5.70
2022-11-20T19:01:43.617Z,5.70
2022-11-20T19:04:15.036Z,5.70
2022-11-20T19:07:08.135Z,5.60
2022-11-20T19:09:38.971Z,5.60
2022-11-20T19:12:11.520Z,5.60
2022-11-20T19:14:48.602Z,5.60
2022-11-20T19:17:17.997Z,5.60
2022-11-20T19:19:46.424Z,5.50
2022-11-20T19:22:14.766Z,5.50
2022-11-20T19:24:53.335Z,5.50
2022-11-20T19:27:24.944Z,5.50
2022-11-20T19:29:57.532Z,5.50
2022-11-20T19:35:15.541Z,5.40
2022-11-20T19:37:45.970Z,5.50
2022-11-20T19:40:26.529Z,5.50
2022-11-20T19:42:58.604Z,5.50
2022-11-20T19:45:28.379Z,5.40
2022-11-20T19:48:08.072Z,5.40
2022-11-20T19:50:36.940Z,5.40
2022-11-20T19:53:41.578Z,5.50
2022-11-20T19:57:06.934Z,5.50
2022-11-20T20:04:09.466Z,5.40
2022-11-20T20:07:40.459Z,5.40
2022-11-20T20:14:58.000Z,5.30
2022-11-20T20:18:47.723Z,5.20
2022-11-20T20:21:53.334Z,5.10
2022-11-20T20:24:21.574Z,5.00
2022-11-20T20:27:32.596Z,5.00
2022-11-20T20:30:01.039Z,5.00
2022-11-20T20:32:29.718Z,4.90
2022-11-20T20:34:57.882Z,4.80
2022-11-20T20:37:26.011Z,4.80
2022-11-20T20:40:03.298Z,4.80
2022-11-20T20:42:33.315Z,4.80
2022-11-20T20:45:11.290Z,4.70
2022-11-20T20:48:00.172Z,4.70
2022-11-20T20:50:48.299Z,4.70
2022-11-20T20:54:40.123Z,4.70
2022-11-20T21:00:37.543Z,4.70
2022-11-20T21:03:05.663Z,4.50
2022-11-20T21:05:33.581Z,4.50
2022-11-20T21:08:19.293Z,4.40
2022-11-20T21:10:47.314Z,4.40
2022-11-20T21:13:15.588Z,4.40
2022-11-20T21:15:48.433Z,4.40
2022-11-20T21:18:19.847Z,4.50
2022-11-20T21:21:06.020Z,4.40
2022-11-20T21:23:34.251Z,4.40
2022-11-20T21:26:03.678Z,4.40
2022-11-20T21:28:33.385Z,4.30
2022-11-20T21:31:07.645Z,4.30
2022-11-20T21:33:40.098Z,4.40
2022-11-20T21:36:25.929Z,4.40
2022-11-20T21:38:55.170Z,4.50
2022-11-20T21:41:23.819Z,4.50
2022-11-20T21:46:54.805Z,4.70
2022-11-20T21:49:26.580Z,4.80
2022-11-20T21:51:54.730Z,4.90
2022-11-20T21:54:25.871Z,4.90
2022-11-20T21:56:54.052Z,4.90
2022-11-20T21:59:22.267Z,4.90
2022-11-20T22:01:50.393Z,4.90
2022-11-20T22:04:20.031Z,4.90
2022-11-20T22:06:48.795Z,4.90
2022-11-20T22:09:18.730Z,4.90
2022-11-20T22:11:47.006Z,4.90
2022-11-20T22:14:24.617Z,4.90
2022-11-20T22:16:54.397Z,4.90
2022-11-20T22:19:25.897Z,5.10
2022-11-20T22:22:01.535Z,5.10
2022-11-20T22:24:32.692Z,5.10
2022-11-20T22:27:00.741Z,5.10
2022-11-20T22:29:28.756Z,5.10
2022-11-20T22:31:56.752Z,5.10
2022-11-20T22:34:26.207Z,5.10
2022-11-20T22:36:55.812Z,5.10
2022-11-20T22:39:23.906Z,5.10
2022-11-20T22:41:51.873Z,5.20
2022-11-20T22:44:22.511Z,5.20
2022-11-20T22:46:50.659Z,5.20
2022-11-20T22:49:18.599Z,5.20
2022-11-20T22:51:47.972Z,5.10
2022-11-20T22:54:17.923Z,5.20
2022-11-20T22:56:46.161Z,5.20
2022-11-20T22:59:17.085Z,5.20
2022-11-20T23:01:44.969Z,5.20
2022-11-20T23:04:13.243Z,5.20
2022-11-20T23:06:41.194Z,5.20
2022-11-20T23:09:12.760Z,5.20
2022-11-20T23:11:40.770Z,5.20
2022-11-20T23:14:13.563Z,5.20
2022-11-20T23:16:41.740Z,5.20
2022-11-20T23:19:11.548Z,5.10
2022-11-20T23:21:41.085Z,5.10
2022-11-20T23:24:11.653Z,5.10
2022-11-20T23:26:41.610Z,5.00
2022-11-20T23:29:12.867Z,5.00
2022-11-20T23:31:40.918Z,5.10
2022-11-20T23:34:08.910Z,5.00
2022-11-20T23:36:36.763Z,5.00
2022-11-20T23:39:04.834Z,5.00
2022-11-20T23:41:34.065Z,5.00
2022-11-20T23:44:03.750Z,4.90
2022-11-20T23:46:33.659Z,4.90
2022-11-20T23:49:01.638Z,4.80
2022-11-20T23:51:32.300Z,4.90
2022-11-20T23:54:04.502Z,4.90
2022-11-20T23:56:34.189Z,4.80
2022-11-20T23:59:02.092Z,4.80
